createdAt,value
2023-04-22T00:02:27.169Z,78.20
2023-04-22T00:04:54.222Z,79.18
2023-04-22T00:07:21.356Z,79.51
2023-04-22T00:09:48.144Z,79.04
2023-04-22T00:12:15.103Z,77.63
2023-04-22T00:14:41.944Z,78.63
2023-04-22T00:17:08.796Z,78.84
2023-04-22T00:19:35.638Z,80.29
2023-04-22T00:22:03.080Z,81.90
2023-04-22T00:24:31.264Z,80.36
2023-04-22T00:26:58.095Z,80.61
2023-04-22T00:29:28.173Z,81.84
2023-04-22T00:31:55.088Z,81.60
2023-04-22T00:34:22.083Z,81.05
2023-04-22T00:36:49.270Z,83.67
2023-04-22T00:39:16.284Z,80.55
2023-04-22T00:41:43.479Z,84.00
2023-04-22T00:44:11.494Z,81.14
2023-04-22T00:46:39.627Z,80.70
2023-04-22T00:49:07.811Z,82.16
2023-04-22T00:51:35.328Z,81.57
2023-04-22T00:54:02.223Z,81.85
2023-04-22T00:56:30.468Z,81.93
2023-04-22T00:58:58.228Z,83.85
2023-04-22T01:01:25.254Z,84.18
2023-04-22T01:03:52.947Z,85.50
2023-04-22T01:06:23.184Z,86.89
2023-04-22T01:08:50.357Z,87.30
2023-04-22T01:11:17.197Z,88.00
2023-04-22T01:13:43.984Z,86.95
2023-04-22T01:16:11.126Z,87.24
2023-04-22T01:18:38.185Z,87.57
2023-04-22T01:21:05.696Z,85.12
2023-04-22T01:23:32.488Z,84.65
2023-04-22T01:25:59.594Z,86.35
2023-04-22T01:28:26.814Z,86.85
2023-04-22T01:30:54.336Z,85.81
2023-04-22T01:33:21.288Z,84.14
2023-04-22T01:35:48.414Z,85.11
2023-04-22T01:38:15.465Z,86.84
2023-04-22T01:40:42.257Z,86.20
2023-04-22T01:43:09.096Z,86.54
2023-04-22T01:45:35.944Z,85.20
2023-04-22T01:48:02.842Z,84.43
2023-04-22T01:50:29.700Z,85.01
2023-04-22T01:52:57.147Z,85.60
2023-04-22T01:55:23.928Z,87.61
2023-04-22T01:57:50.749Z,85.62
2023-04-22T02:00:17.949Z,85.41
2023-04-22T02:02:47.632Z,86.89
2023-04-22T02:05:14.861Z,86.50
2023-04-22T02:07:41.735Z,87.44
2023-04-22T02:10:09.809Z,85.93
2023-04-22T02:12:36.657Z,86.21
2023-04-22T02:15:03.912Z,85.80
2023-04-22T02:17:30.844Z,85.46
2023-04-22T02:19:57.658Z,86.22
2023-04-22T02:22:24.533Z,87.15
2023-04-22T02:24:51.407Z,84.98
2023-04-22T02:27:18.174Z,84.78
2023-04-22T02:29:48.396Z,84.28
2023-04-22T02:32:17.957Z,84.36
2023-04-22T02:34:44.820Z,84.53
2023-04-22T02:37:13.169Z,85.35
2023-04-22T02:39:40.501Z,85.92
2023-04-22T02:42:07.579Z,85.87
2023-04-22T02:44:34.720Z,86.55
2023-04-22T02:47:01.876Z,86.66
2023-04-22T02:49:28.690Z,86.78
2023-04-22T02:51:55.650Z,86.83
2023-04-22T02:54:22.493Z,86.04
2023-04-22T02:56:49.283Z,85.78
2023-04-22T02:59:16.131Z,86.01
2023-04-22T03:01:42.998Z,86.54
2023-04-22T03:04:15.924Z,85.67
2023-04-22T03:06:42.832Z,86.11
2023-04-22T03:09:09.840Z,86.56
2023-04-22T03:11:36.773Z,87.27
2023-04-22T03:14:03.553Z,85.63
2023-04-22T03:16:30.639Z,86.18
2023-04-22T03:19:02.746Z,85.77
2023-04-22T03:21:30.009Z,84.85
2023-04-22T03:23:56.784Z,85.60
2023-04-22T03:26:23.950Z,85.48
2023-04-22T03:28:50.935Z,85.43
2023-04-22T03:31:18.000Z,85.52
2023-04-22T03:33:46.212Z,85.29
2023-04-22T03:36:21.507Z,85.03
2023-04-22T03:38:48.654Z,85.36
2023-04-22T03:41:15.651Z,86.01
2023-04-22T03:43:46.409Z,85.77
2023-04-22T03:46:13.345Z,85.33
2023-04-22T03:48:44.636Z,85.74
2023-04-22T03:51:21.260Z,85.36
2023-04-22T03:53:48.157Z,85.28
2023-04-22T03:56:19.356Z,85.66
2023-04-22T03:58:47.403Z,85.27
2023-04-22T04:01:15.486Z,84.54
2023-04-22T04:03:46.277Z,84.43
2023-04-22T04:06:14.790Z,85.08
2023-04-22T04:08:42.303Z,84.07
2023-04-22T04:11:10.915Z,85.24
2023-04-22T04:13:38.141Z,85.13
2023-04-22T04:16:17.333Z,85.09
2023-04-22T04:18:51.099Z,84.73
2023-04-22T04:21:19.001Z,84.15
2023-04-22T04:23:49.777Z,84.13
2023-04-22T04:26:18.396Z,84.49
2023-04-22T04:28:49.424Z,84.60
2023-04-22T04:31:18.350Z,84.22
2023-04-22T04:33:46.706Z,84.75
2023-04-22T04:36:14.786Z,84.69
2023-04-22T04:38:43.194Z,84.47
2023-04-22T04:41:10.836Z,83.32
2023-04-22T04:43:38.894Z,83.54
2023-04-22T04:46:37.982Z,85.04
2023-04-22T04:49:07.323Z,84.43
2023-04-22T04:51:41.233Z,84.00
2023-04-22T04:54:08.218Z,83.50
2023-04-22T04:56:39.329Z,84.28
2023-04-22T04:59:08.480Z,84.30
2023-04-22T05:01:35.733Z,85.09
2023-04-22T05:04:06.967Z,84.85
2023-04-22T05:06:34.384Z,83.17
2023-04-22T05:09:04.454Z,84.91
2023-04-22T05:11:31.312Z,83.53
2023-04-22T05:14:00.835Z,84.13
2023-04-22T05:16:33.031Z,84.98
2023-04-22T05:19:00.149Z,83.37
2023-04-22T05:21:27.026Z,83.62
2023-04-22T05:23:54.220Z,83.40
2023-04-22T05:26:21.294Z,83.62
2023-04-22T05:28:50.126Z,85.08
2023-04-22T05:31:19.237Z,84.40
2023-04-22T05:33:47.086Z,84.94
2023-04-22T05:36:14.418Z,84.14
2023-04-22T05:38:42.045Z,84.89
2023-04-22T05:41:08.878Z,85.82
2023-04-22T05:43:35.773Z,85.18
2023-04-22T05:46:16.020Z,85.37
2023-04-22T05:48:44.762Z,85.75
2023-04-22T05:51:31.375Z,85.84
2023-04-22T05:53:58.233Z,86.70
2023-04-22T05:56:25.066Z,86.08
2023-04-22T05:58:53.254Z,84.33
2023-04-22T06:01:24.873Z,84.82
2023-04-22T06:03:57.630Z,85.99
2023-04-22T06:06:26.152Z,85.95
2023-04-22T06:08:53.416Z,85.71
2023-04-22T06:11:20.508Z,86.28
2023-04-22T06:13:47.472Z,85.95
2023-04-22T06:16:15.023Z,84.76
2023-04-22T06:18:43.596Z,83.87
2023-04-22T06:21:12.210Z,84.20
2023-04-22T06:23:39.945Z,84.19
2023-04-22T06:26:06.813Z,84.11
2023-04-22T06:28:35.387Z,83.44
2023-04-22T06:31:06.886Z,83.82
2023-04-22T06:33:33.781Z,84.39
2023-04-22T06:36:01.976Z,84.77
2023-04-22T06:38:31.040Z,83.37
2023-04-22T06:41:26.979Z,83.18
2023-04-22T06:43:58.184Z,83.87
2023-04-22T06:46:46.048Z,83.24
2023-04-22T06:49:38.689Z,83.59
2023-04-22T06:52:35.542Z,83.03
2023-04-22T06:55:03.682Z,82.60
2023-04-22T06:57:30.940Z,82.76
2023-04-22T06:59:57.794Z,83.21
2023-04-22T07:02:27.091Z,82.66
2023-04-22T07:04:54.078Z,82.08
2023-04-22T07:07:20.874Z,81.91
2023-04-22T07:09:48.717Z,80.96
2023-04-22T07:12:15.795Z,81.66
2023-04-22T07:14:44.426Z,80.40
2023-04-22T07:17:11.922Z,79.90
2023-04-22T07:19:39.354Z,80.32
2023-04-22T07:22:07.144Z,80.36
2023-04-22T07:24:34.312Z,81.04
2023-04-22T07:27:02.517Z,80.51
2023-04-22T07:29:29.440Z,79.46
2023-04-22T07:31:56.461Z,78.86
2023-04-22T07:34:23.580Z,79.31
2023-04-22T07:36:52.413Z,79.47
2023-04-22T07:39:19.604Z,79.12
2023-04-22T07:41:46.483Z,79.15
2023-04-22T07:44:16.553Z,79.01
2023-04-22T07:46:43.740Z,78.47
2023-04-22T07:49:10.754Z,77.53
2023-04-22T07:51:37.646Z,76.94
2023-04-22T07:54:04.419Z,76.62
2023-04-22T07:56:31.441Z,75.64
2023-04-22T07:58:58.292Z,75.40
2023-04-22T08:01:25.186Z,76.66
2023-04-22T08:03:52.182Z,76.16
2023-04-22T08:06:19.242Z,76.34
2023-04-22T08:08:46.486Z,75.69
2023-04-22T08:11:13.414Z,75.52
2023-04-22T08:13:40.223Z,76.14
2023-04-22T08:16:07.576Z,75.93
2023-04-22T08:18:34.876Z,76.46
2023-04-22T08:21:02.343Z,75.90
2023-04-22T08:23:29.142Z,75.11
2023-04-22T08:25:56.091Z,74.53
2023-04-22T08:28:22.988Z,75.07
2023-04-22T08:30:49.739Z,74.66
2023-04-22T08:33:17.369Z,73.61
2023-04-22T08:35:44.317Z,74.97
2023-04-22T08:38:11.139Z,74.06
2023-04-22T08:40:41.172Z,73.19
2023-04-22T08:43:08.385Z,73.34
2023-04-22T08:45:35.538Z,73.64
2023-04-22T08:48:03.041Z,75.47
2023-04-22T08:50:30.303Z,73.64
2023-04-22T08:52:57.172Z,73.72
2023-04-22T08:55:24.651Z,73.49
2023-04-22T08:57:52.084Z,74.19
2023-04-22T09:00:19.309Z,73.84
2023-04-22T09:02:46.604Z,73.56
2023-04-22T09:05:14.122Z,73.62
2023-04-22T09:07:41.345Z,74.71
2023-04-22T09:10:11.854Z,74.50
2023-04-22T09:12:40.957Z,74.15
2023-04-22T09:15:08.945Z,74.49
2023-04-22T09:17:38.413Z,73.51
2023-04-22T09:20:07.888Z,74.08
2023-04-22T09:22:46.296Z,73.14
2023-04-22T09:25:20.819Z,72.60
2023-04-22T09:27:53.788Z,72.37
2023-04-22T09:30:25.837Z,72.26
2023-04-22T09:32:57.359Z,72.58
2023-04-22T09:35:38.408Z,72.77
2023-04-22T09:38:08.340Z,71.72
2023-04-22T09:40:36.097Z,72.15
2023-04-22T09:43:05.807Z,72.90
2023-04-22T09:45:36.572Z,71.67
2023-04-22T09:48:10.671Z,71.66
2023-04-22T09:50:39.451Z,71.11
2023-04-22T09:53:11.756Z,71.06
2023-04-22T09:55:41.725Z,71.17
2023-04-22T09:58:13.665Z,70.90
2023-04-22T10:00:47.545Z,70.32
2023-04-22T10:03:15.059Z,68.80
2023-04-22T10:05:42.607Z,68.35
2023-04-22T10:08:10.502Z,68.12
2023-04-22T10:10:38.072Z,68.21
2023-04-22T10:13:05.809Z,68.72
2023-04-22T10:15:51.981Z,67.53
2023-04-22T10:18:23.794Z,66.83
2023-04-22T10:20:51.582Z,67.56
2023-04-22T10:23:19.974Z,67.45
2023-04-22T10:25:53.332Z,68.23
2023-04-22T10:28:23.337Z,66.73
2023-04-22T10:30:50.628Z,66.58
2023-04-22T10:33:31.846Z,67.70
2023-04-22T10:36:10.806Z,67.69
2023-04-22T10:38:55.773Z,68.27
2023-04-22T10:41:24.041Z,68.35
2023-04-22T10:44:01.461Z,68.92
2023-04-22T10:46:37.582Z,68.09
2023-04-22T10:49:21.788Z,64.95
2023-04-22T10:51:53.337Z,65.44
2023-04-22T10:54:31.906Z,65.09
2023-04-22T10:57:04.824Z,64.36
2023-04-22T10:59:33.706Z,64.22
2023-04-22T11:02:06.159Z,64.36
2023-04-22T11:04:33.017Z,65.40
2023-04-22T11:07:20.571Z,64.72
2023-04-22T11:09:51.382Z,65.10
2023-04-22T11:12:39.599Z,65.60
2023-04-22T11:15:06.988Z,64.83
2023-04-22T11:17:34.426Z,63.12
2023-04-22T11:20:01.834Z,60.83
2023-04-22T11:22:28.674Z,62.14
2023-04-22T11:24:59.821Z,60.17
2023-04-22T11:27:26.936Z,61.33
2023-04-22T11:30:23.464Z,59.87
2023-04-22T11:32:52.844Z,60.99
2023-04-22T11:35:27.099Z,59.59
2023-04-22T11:37:57.839Z,60.55
2023-04-22T11:40:33.757Z,58.27
2023-04-22T11:43:03.473Z,59.54
2023-04-22T11:45:32.489Z,60.10
2023-04-22T11:47:59.597Z,57.02
2023-04-22T11:50:29.553Z,58.54
2023-04-22T11:52:57.451Z,59.38
2023-04-22T11:55:30.861Z,58.94
2023-04-22T11:57:57.693Z,58.92
2023-04-22T12:00:29.665Z,59.12
2023-04-22T12:02:58.531Z,58.60
2023-04-22T12:05:34.970Z,57.75
2023-04-22T12:08:08.898Z,58.30
2023-04-22T12:10:41.222Z,58.39
2023-04-22T12:13:08.314Z,58.10
2023-04-22T12:15:43.015Z,56.68
2023-04-22T12:18:12.073Z,58.24
2023-04-22T12:20:42.194Z,57.28
2023-04-22T12:23:14.494Z,58.45
2023-04-22T12:25:42.370Z,57.56
2023-04-22T12:28:09.831Z,56.46
2023-04-22T12:30:36.839Z,56.90
2023-04-22T12:33:04.184Z,56.16
2023-04-22T12:35:31.112Z,56.90
2023-04-22T12:37:58.486Z,55.69
2023-04-22T12:40:25.465Z,54.92
2023-04-22T12:42:52.348Z,54.21
2023-04-22T12:45:19.576Z,53.20
2023-04-22T12:47:47.186Z,53.94
2023-04-22T12:50:14.183Z,52.37
2023-04-22T12:52:40.980Z,52.33
2023-04-22T12:55:08.468Z,51.16
2023-04-22T12:57:35.324Z,50.95
2023-04-22T13:00:02.313Z,50.43
2023-04-22T13:02:29.253Z,50.51
2023-04-22T13:04:56.665Z,51.88
2023-04-22T13:07:23.594Z,52.63
2023-04-22T13:09:50.560Z,51.49
2023-04-22T13:12:17.417Z,51.23
2023-04-22T13:14:44.406Z,48.19
2023-04-22T13:17:11.416Z,47.32
2023-04-22T13:19:38.414Z,47.31
2023-04-22T13:22:05.256Z,46.99
2023-04-22T13:24:32.224Z,44.76
2023-04-22T13:26:59.079Z,44.19
2023-04-22T13:29:26.527Z,43.88
2023-04-22T13:31:53.325Z,46.50
2023-04-22T13:34:20.161Z,46.60
2023-04-22T13:36:47.316Z,47.32
2023-04-22T13:39:14.252Z,47.52
2023-04-22T13:41:41.089Z,49.35
2023-04-22T13:44:07.910Z,49.61
2023-04-22T13:46:34.781Z,50.79
2023-04-22T13:49:01.729Z,50.02
2023-04-22T13:51:28.617Z,50.58
2023-04-22T13:53:56.082Z,50.75
2023-04-22T13:56:23.881Z,51.16
2023-04-22T13:58:51.038Z,52.60
2023-04-22T14:01:18.469Z,52.40
2023-04-22T14:03:45.956Z,53.14
2023-04-22T14:06:13.064Z,54.83
2023-04-22T14:08:40.838Z,54.93
2023-04-22T14:11:08.283Z,55.90
2023-04-22T14:13:35.547Z,56.09
2023-04-22T14:16:09.764Z,57.29
2023-04-22T14:18:38.251Z,56.76
2023-04-22T14:21:06.528Z,57.73
2023-04-22T14:23:33.863Z,56.51
2023-04-22T14:26:01.488Z,57.75
2023-04-22T14:28:28.468Z,58.19
2023-04-22T14:30:55.573Z,59.46
2023-04-22T14:33:24.728Z,58.86
2023-04-22T14:35:52.560Z,60.48
2023-04-22T14:38:19.853Z,62.05
2023-04-22T14:40:47.338Z,62.37
2023-04-22T14:43:15.772Z,62.01
2023-04-22T14:45:42.589Z,55.22
2023-04-22T14:48:09.607Z,52.63
2023-04-22T14:50:36.552Z,51.01
2023-04-22T14:53:03.382Z,50.17
2023-04-22T14:55:31.506Z,47.90
2023-04-22T14:57:58.416Z,49.01
2023-04-22T15:00:25.999Z,49.27
2023-04-22T15:02:54.360Z,51.28
2023-04-22T15:05:23.501Z,53.00
2023-04-22T15:07:51.225Z,51.04
2023-04-22T15:10:18.057Z,49.86
2023-04-22T15:12:45.259Z,50.75
2023-04-22T15:15:16.970Z,51.50
2023-04-22T15:17:44.444Z,53.24
2023-04-22T15:20:12.382Z,53.53
2023-04-22T15:22:43.112Z,54.78
2023-04-22T15:25:10.778Z,55.40
2023-04-22T15:27:38.696Z,55.70
2023-04-22T15:30:07.518Z,55.64
2023-04-22T15:32:34.419Z,57.31
2023-04-22T15:35:01.342Z,57.27
2023-04-22T15:37:28.163Z,59.32
2023-04-22T15:39:55.057Z,58.01
2023-04-22T15:42:21.977Z,58.95
2023-04-22T15:44:48.820Z,59.75
2023-04-22T15:47:17.064Z,59.22
2023-04-22T15:49:44.108Z,60.01
2023-04-22T15:52:11.036Z,60.65
2023-04-22T15:54:37.829Z,61.38
2023-04-22T15:57:04.582Z,62.01
2023-04-22T15:59:31.370Z,62.46
2023-04-22T16:01:58.227Z,62.13
2023-04-22T16:04:25.203Z,61.76
2023-04-22T16:06:52.206Z,62.39
2023-04-22T16:09:19.436Z,64.13
2023-04-22T16:11:46.307Z,63.68
2023-04-22T16:14:13.226Z,64.38
2023-04-22T16:16:41.164Z,65.16
2023-04-22T16:19:08.446Z,65.65
2023-04-22T16:21:35.403Z,65.46
2023-04-22T16:24:02.297Z,64.82
2023-04-22T16:26:29.146Z,65.04
2023-04-22T16:28:56.226Z,65.46
2023-04-22T16:31:23.218Z,64.71
2023-04-22T16:33:51.473Z,64.16
2023-04-22T16:36:18.335Z,64.35
2023-04-22T16:38:45.480Z,64.33
2023-04-22T16:41:12.279Z,65.82
2023-04-22T16:43:41.100Z,66.35
2023-04-22T16:46:08.381Z,67.53
2023-04-22T16:48:35.959Z,66.28
2023-04-22T16:51:02.901Z,66.83
2023-04-22T16:53:30.587Z,66.58
2023-04-22T16:55:57.568Z,67.69
2023-04-22T16:58:24.485Z,67.65
2023-04-22T17:00:54.437Z,68.00
2023-04-22T17:03:21.528Z,67.29
2023-04-22T17:05:48.349Z,66.93
2023-04-22T17:08:15.155Z,66.87
2023-04-22T17:10:45.161Z,67.39
2023-04-22T17:13:13.591Z,67.05
2023-04-22T17:15:41.255Z,67.55
2023-04-22T17:18:08.360Z,67.50
2023-04-22T17:20:36.602Z,67.82
2023-04-22T17:23:04.310Z,69.01
2023-04-22T17:25:31.364Z,69.49
2023-04-22T17:27:58.227Z,67.74
2023-04-22T17:30:25.195Z,68.08
2023-04-22T17:32:52.151Z,68.04
2023-04-22T17:35:19.035Z,67.03
2023-04-22T17:37:45.983Z,67.24
2023-04-22T17:40:12.811Z,67.97
2023-04-22T17:42:45.899Z,67.17
2023-04-22T17:45:13.484Z,69.18
2023-04-22T17:47:40.372Z,68.70
2023-04-22T17:50:07.910Z,68.70
2023-04-22T17:52:35.574Z,68.35
2023-04-22T17:55:02.382Z,69.09
2023-04-22T17:57:29.072Z,68.98
2023-04-22T17:59:55.886Z,67.97
2023-04-22T18:02:23.553Z,68.97
2023-04-22T18:04:50.924Z,69.72
2023-04-22T18:07:18.109Z,69.13
2023-04-22T18:09:45.090Z,68.42
2023-04-22T18:12:11.893Z,69.61
2023-04-22T18:14:38.717Z,69.74
2023-04-22T18:17:05.601Z,70.51
2023-04-22T18:19:32.688Z,70.33
2023-04-22T18:22:00.587Z,71.48
2023-04-22T18:24:28.162Z,71.55
2023-04-22T18:26:55.061Z,72.46
2023-04-22T18:29:22.051Z,71.45
2023-04-22T18:31:49.082Z,70.97
2023-04-22T18:34:16.125Z,72.29
2023-04-22T18:36:43.177Z,72.97
2023-04-22T18:39:10.838Z,71.94
2023-04-22T18:41:40.948Z,71.96
2023-04-22T18:44:07.876Z,71.40
2023-04-22T18:46:34.710Z,71.81
2023-04-22T18:49:01.756Z,72.59
2023-04-22T18:51:30.198Z,70.47
2023-04-22T18:53:57.224Z,71.29
2023-04-22T18:56:24.095Z,71.99
2023-04-22T18:58:51.489Z,72.10
2023-04-22T19:01:18.323Z,71.53
2023-04-22T19:03:46.552Z,71.52
2023-04-22T19:06:13.417Z,71.57
2023-04-22T19:08:40.276Z,71.83
2023-04-22T19:11:07.098Z,72.42
2023-04-22T19:13:34.026Z,72.58
2023-04-22T19:16:00.887Z,74.31
2023-04-22T19:18:27.772Z,73.74
2023-04-22T19:20:54.641Z,72.59
2023-04-22T19:23:22.003Z,73.98
2023-04-22T19:25:48.797Z,74.38
2023-04-22T19:28:15.743Z,75.24
2023-04-22T19:30:43.186Z,75.24
2023-04-22T19:33:10.326Z,74.78
2023-04-22T19:35:37.140Z,74.10
2023-04-22T19:38:03.969Z,74.50
2023-04-22T19:40:31.035Z,75.68
2023-04-22T19:42:59.166Z,76.81
2023-04-22T19:45:26.888Z,76.94
2023-04-22T19:47:53.880Z,76.89
2023-04-22T19:50:21.087Z,77.25
2023-04-22T19:52:50.569Z,75.76
2023-04-22T19:55:18.035Z,75.87
2023-04-22T19:57:44.997Z,77.42
2023-04-22T20:00:12.668Z,76.16
2023-04-22T20:02:40.146Z,76.76
2023-04-22T20:05:08.291Z,76.03
2023-04-22T20:07:36.268Z,76.88
2023-04-22T20:10:04.820Z,76.20
2023-04-22T20:12:32.040Z,76.88
2023-04-22T20:15:00.071Z,77.20
2023-04-22T20:17:27.399Z,77.02
2023-04-22T20:19:55.039Z,76.79
2023-04-22T20:22:24.609Z,77.16
2023-04-22T20:25:13.012Z,77.51
2023-04-22T20:27:40.620Z,78.84
2023-04-22T20:30:08.696Z,78.04
2023-04-22T20:32:36.781Z,77.60
2023-04-22T20:35:04.722Z,77.94
2023-04-22T20:37:34.488Z,78.40
2023-04-22T20:40:04.642Z,78.54
2023-04-22T20:42:33.221Z,78.61
2023-04-22T20:45:00.012Z,78.28
2023-04-22T20:47:26.890Z,78.52
2023-04-22T20:49:53.723Z,78.38
2023-04-22T20:52:20.508Z,77.97
2023-04-22T20:54:51.258Z,78.70
2023-04-22T20:57:18.903Z,78.57
2023-04-22T20:59:45.684Z,78.63
2023-04-22T21:02:12.792Z,78.21
2023-04-22T21:04:40.534Z,78.42
2023-04-22T21:07:11.920Z,79.26
2023-04-22T21:09:38.856Z,78.24
2023-04-22T21:12:06.139Z,78.40
2023-04-22T21:14:33.436Z,78.84
2023-04-22T21:17:35.677Z,79.52
2023-04-22T21:20:04.284Z,79.38
2023-04-22T21:22:31.204Z,78.91
2023-04-22T21:24:58.647Z,80.74
2023-04-22T21:27:25.941Z,81.40
2023-04-22T21:29:54.278Z,81.71
2023-04-22T21:32:21.193Z,80.39
2023-04-22T21:34:48.020Z,80.38
2023-04-22T21:37:14.854Z,81.31
2023-04-22T21:39:42.023Z,80.96
2023-04-22T21:42:09.122Z,81.25
2023-04-22T21:44:37.441Z,81.44
2023-04-22T21:47:05.119Z,82.57
2023-04-22T21:49:31.996Z,83.27
2023-04-22T21:51:59.300Z,81.94
2023-04-22T21:54:26.121Z,83.05
2023-04-22T21:56:53.268Z,83.39
2023-04-22T21:59:20.093Z,82.81
2023-04-22T22:01:46.997Z,83.34
2023-04-22T22:04:16.230Z,83.60
2023-04-22T22:06:44.953Z,83.97
2023-04-22T22:09:12.521Z,83.87
2023-04-22T22:11:39.302Z,84.80
2023-04-22T22:14:06.473Z,83.67
2023-04-22T22:16:33.599Z,84.41
2023-04-22T22:19:02.909Z,84.03
2023-04-22T22:21:30.057Z,84.45
2023-04-22T22:23:57.815Z,84.96
2023-04-22T22:26:24.848Z,85.03
2023-04-22T22:28:51.740Z,85.10
2023-04-22T22:31:18.909Z,84.68
2023-04-22T22:33:45.956Z,84.87
2023-04-22T22:36:12.791Z,84.43
2023-04-22T22:38:39.573Z,84.57
2023-04-22T22:41:06.829Z,83.82
2023-04-22T22:43:33.562Z,85.18
2023-04-22T22:46:00.511Z,85.39
2023-04-22T22:48:27.760Z,85.22
2023-04-22T22:50:54.649Z,85.08
2023-04-22T22:53:21.589Z,84.94
2023-04-22T22:55:48.483Z,85.67
2023-04-22T22:58:15.262Z,85.71
2023-04-22T23:00:42.195Z,83.95
2023-04-22T23:03:09.348Z,84.06
2023-04-22T23:05:36.430Z,85.46
2023-04-22T23:08:03.695Z,85.90
2023-04-22T23:10:30.911Z,85.80
2023-04-22T23:12:57.658Z,84.90
2023-04-22T23:15:24.400Z,85.36
2023-04-22T23:17:51.283Z,83.99
2023-04-22T23:20:18.401Z,84.78
2023-04-22T23:22:45.496Z,83.85
2023-04-22T23:25:13.033Z,85.38
2023-04-22T23:27:40.725Z,85.12
2023-04-22T23:30:08.166Z,84.98
2023-04-22T23:32:35.875Z,84.57
2023-04-22T23:35:02.905Z,85.06
2023-04-22T23:37:29.929Z,85.30
2023-04-22T23:39:56.815Z,85.35
2023-04-22T23:42:24.120Z,84.53
2023-04-22T23:44:51.334Z,84.96
2023-04-22T23:47:18.370Z,84.89
2023-04-22T23:49:45.215Z,84.58
2023-04-22T23:52:13.118Z,85.22
2023-04-22T23:54:41.513Z,85.27
2023-04-22T23:57:08.824Z,85.19
2023-04-22T23:59:36.066Z,85.04
